sensor_id;sensor_type;location;lat;lon;timestamp;pressure;altitude;pressure_sealevel;temperature;humidity
79376;BME280;68846;53.150;18.136;2024-01-30T00:01:26;102644.05;;;-0.07;80.29
79376;BME280;68846;53.150;18.136;2024-01-30T00:03:55;102649.36;;;-0.08;80.33
79376;BME280;68846;53.150;18.136;2024-01-30T00:06:22;102652.40;;;-0.09;80.42
79376;BME280;68846;53.150;18.136;2024-01-30T00:08:50;102648.34;;;-0.11;80.84
79376;BME280;68846;53.150;18.136;2024-01-30T00:11:17;102648.09;;;-0.11;80.62
79376;BME280;68846;53.150;18.136;2024-01-30T00:13:44;102645.52;;;-0.08;80.50
79376;BME280;68846;53.150;18.136;2024-01-30T00:16:21;102647.50;;;-0.07;80.52
79376;BME280;68846;53.150;18.136;2024-01-30T00:18:51;102644.28;;;-0.09;80.22
79376;BME280;68846;53.150;18.136;2024-01-30T00:21:19;102647.30;;;-0.12;80.28
79376;BME280;68846;53.150;18.136;2024-01-30T00:23:47;102643.42;;;-0.16;80.20
79376;BME280;68846;53.150;18.136;2024-01-30T00:26:14;102641.69;;;-0.18;80.32
79376;BME280;68846;53.150;18.136;2024-01-30T00:28:42;102643.61;;;-0.20;80.27
79376;BME280;68846;53.150;18.136;2024-01-30T00:31:09;102640.64;;;-0.19;80.65
79376;BME280;68846;53.150;18.136;2024-01-30T00:33:41;102643.75;;;-0.17;80.35
79376;BME280;68846;53.150;18.136;2024-01-30T00:36:09;102637.89;;;-0.16;79.99
79376;BME280;68846;53.150;18.136;2024-01-30T00:38:37;102639.29;;;-0.20;80.10
79376;BME280;68846;53.150;18.136;2024-01-30T00:41:04;102636.91;;;-0.23;80.26
79376;BME280;68846;53.150;18.136;2024-01-30T00:43:31;102634.02;;;-0.25;80.42
79376;BME280;68846;53.150;18.136;2024-01-30T00:45:59;102630.96;;;-0.24;80.59
79376;BME280;68846;53.150;18.136;2024-01-30T00:48:26;102633.75;;;-0.22;80.19
79376;BME280;68846;53.150;18.136;2024-01-30T00:50:53;102629.09;;;-0.24;80.17
79376;BME280;68846;53.150;18.136;2024-01-30T00:53:20;102625.14;;;-0.28;80.26
79376;BME280;68846;53.150;18.136;2024-01-30T00:55:47;102628.91;;;-0.30;80.32
79376;BME280;68846;53.150;18.136;2024-01-30T00:58:14;102627.30;;;-0.35;80.22
79376;BME280;68846;53.150;18.136;2024-01-30T01:00:41;102628.66;;;-0.37;80.44
79376;BME280;68846;53.150;18.136;2024-01-30T01:03:08;102627.08;;;-0.37;80.39
79376;BME280;68846;53.150;18.136;2024-01-30T01:05:36;102632.30;;;-0.39;80.45
79376;BME280;68846;53.150;18.136;2024-01-30T01:08:04;102631.17;;;-0.42;80.37
79376;BME280;68846;53.150;18.136;2024-01-30T01:10:31;102629.92;;;-0.46;80.56
79376;BME280;68846;53.150;18.136;2024-01-30T01:12:58;102628.56;;;-0.50;80.69
79376;BME280;68846;53.150;18.136;2024-01-30T01:15:25;102621.43;;;-0.53;81.01
79376;BME280;68846;53.150;18.136;2024-01-30T01:17:52;102623.10;;;-0.56;80.72
79376;BME280;68846;53.150;18.136;2024-01-30T01:20:19;102622.48;;;-0.59;80.82
79376;BME280;68846;53.150;18.136;2024-01-30T01:22:46;102620.33;;;-0.61;81.24
79376;BME280;68846;53.150;18.136;2024-01-30T01:25:13;102622.79;;;-0.63;80.90
79376;BME280;68846;53.150;18.136;2024-01-30T01:27:40;102617.49;;;-0.64;81.22
79376;BME280;68846;53.150;18.136;2024-01-30T01:30:10;102615.65;;;-0.64;81.01
79376;BME280;68846;53.150;18.136;2024-01-30T01:32:38;102620.75;;;-0.65;81.00
79376;BME280;68846;53.150;18.136;2024-01-30T01:35:05;102615.98;;;-0.66;80.85
79376;BME280;68846;53.150;18.136;2024-01-30T01:37:33;102617.02;;;-0.68;81.04
79376;BME280;68846;53.150;18.136;2024-01-30T01:40:01;102618.02;;;-0.68;80.93
79376;BME280;68846;53.150;18.136;2024-01-30T01:42:28;102611.89;;;-0.69;80.96
79376;BME280;68846;53.150;18.136;2024-01-30T01:44:55;102614.44;;;-0.67;80.90
79376;BME280;68846;53.150;18.136;2024-01-30T01:47:24;102613.97;;;-0.67;81.32
79376;BME280;68846;53.150;18.136;2024-01-30T01:49:52;102616.75;;;-0.67;80.81
79376;BME280;68846;53.150;18.136;2024-01-30T01:52:19;102619.05;;;-0.68;81.05
79376;BME280;68846;53.150;18.136;2024-01-30T01:54:46;102619.05;;;-0.70;80.83
79376;BME280;68846;53.150;18.136;2024-01-30T01:57:13;102617.64;;;-0.71;80.89
79376;BME280;68846;53.150;18.136;2024-01-30T01:59:40;102616.60;;;-0.71;80.80
79376;BME280;68846;53.150;18.136;2024-01-30T02:02:11;102614.33;;;-0.69;80.99
79376;BME280;68846;53.150;18.136;2024-01-30T02:04:39;102612.59;;;-0.63;80.89
79376;BME280;68846;53.150;18.136;2024-01-30T02:07:06;102614.46;;;-0.55;80.98
79376;BME280;68846;53.150;18.136;2024-01-30T02:09:34;102614.91;;;-0.50;80.51
79376;BME280;68846;53.150;18.136;2024-01-30T02:12:02;102612.89;;;-0.51;80.34
79376;BME280;68846;53.150;18.136;2024-01-30T02:14:30;102612.67;;;-0.56;80.34
79376;BME280;68846;53.150;18.136;2024-01-30T02:16:57;102612.23;;;-0.59;80.38
79376;BME280;68846;53.150;18.136;2024-01-30T02:19:24;102606.59;;;-0.62;80.71
79376;BME280;68846;53.150;18.136;2024-01-30T02:21:51;102610.45;;;-0.62;80.64
79376;BME280;68846;53.150;18.136;2024-01-30T02:24:21;102609.67;;;-0.61;80.55
79376;BME280;68846;53.150;18.136;2024-01-30T02:26:48;102609.32;;;-0.65;80.40
79376;BME280;68846;53.150;18.136;2024-01-30T02:29:15;102609.27;;;-0.69;80.64
79376;BME280;68846;53.150;18.136;2024-01-30T02:31:42;102613.52;;;-0.74;80.66
79376;BME280;68846;53.150;18.136;2024-01-30T02:34:34;102612.39;;;-0.79;80.90
79376;BME280;68846;53.150;18.136;2024-01-30T02:37:02;102615.22;;;-0.83;80.97
79376;BME280;68846;53.150;18.136;2024-01-30T02:39:29;102614.57;;;-0.82;81.04
79376;BME280;68846;53.150;18.136;2024-01-30T02:41:57;102609.02;;;-0.80;81.06
79376;BME280;68846;53.150;18.136;2024-01-30T02:44:24;102608.56;;;-0.75;80.91
79376;BME280;68846;53.150;18.136;2024-01-30T02:46:51;102606.13;;;-0.72;80.72
79376;BME280;68846;53.150;18.136;2024-01-30T02:49:21;102606.01;;;-0.67;80.77
79376;BME280;68846;53.150;18.136;2024-01-30T02:51:48;102602.91;;;-0.63;80.78
79376;BME280;68846;53.150;18.136;2024-01-30T02:54:16;102604.88;;;-0.60;80.59
79376;BME280;68846;53.150;18.136;2024-01-30T02:56:43;102607.45;;;-0.63;80.23
79376;BME280;68846;53.150;18.136;2024-01-30T02:59:10;102605.91;;;-0.66;80.27
79376;BME280;68846;53.150;18.136;2024-01-30T03:01:44;102601.86;;;-0.69;80.54
79376;BME280;68846;53.150;18.136;2024-01-30T03:04:11;102599.09;;;-0.73;80.82
79376;BME280;68846;53.150;18.136;2024-01-30T03:06:38;102598.11;;;-0.74;80.79
79376;BME280;68846;53.150;18.136;2024-01-30T03:09:05;102597.62;;;-0.76;80.88
79376;BME280;68846;53.150;18.136;2024-01-30T03:11:33;102599.40;;;-0.79;80.74
79376;BME280;68846;53.150;18.136;2024-01-30T03:14:00;102597.52;;;-0.85;80.67
79376;BME280;68846;53.150;18.136;2024-01-30T03:16:27;102598.55;;;-0.89;80.97
79376;BME280;68846;53.150;18.136;2024-01-30T03:18:54;102604.89;;;-0.92;80.84
79376;BME280;68846;53.150;18.136;2024-01-30T03:21:22;102606.78;;;-0.92;81.03
79376;BME280;68846;53.150;18.136;2024-01-30T03:23:49;102606.11;;;-0.92;81.06
79376;BME280;68846;53.150;18.136;2024-01-30T03:26:15;102607.34;;;-0.90;81.17
79376;BME280;68846;53.150;18.136;2024-01-30T03:28:42;102608.48;;;-0.88;81.35
79376;BME280;68846;53.150;18.136;2024-01-30T03:31:10;102608.84;;;-0.86;81.29
79376;BME280;68846;53.150;18.136;2024-01-30T03:33:37;102610.70;;;-0.83;81.29
79376;BME280;68846;53.150;18.136;2024-01-30T03:36:05;102607.66;;;-0.80;81.48
79376;BME280;68846;53.150;18.136;2024-01-30T03:38:32;102604.86;;;-0.76;81.46
79376;BME280;68846;53.150;18.136;2024-01-30T03:41:00;102603.37;;;-0.73;81.25
79376;BME280;68846;53.150;18.136;2024-01-30T03:43:28;102598.41;;;-0.71;81.11
79376;BME280;68846;53.150;18.136;2024-01-30T03:45:55;102594.95;;;-0.69;80.99
79376;BME280;68846;53.150;18.136;2024-01-30T03:48:22;102592.95;;;-0.66;81.23
79376;BME280;68846;53.150;18.136;2024-01-30T03:50:49;102592.11;;;-0.64;81.26
79376;BME280;68846;53.150;18.136;2024-01-30T03:53:17;102593.50;;;-0.62;81.00
79376;BME280;68846;53.150;18.136;2024-01-30T03:55:47;102594.75;;;-0.61;81.32
79376;BME280;68846;53.150;18.136;2024-01-30T03:58:14;102595.11;;;-0.61;81.27
79376;BME280;68846;53.150;18.136;2024-01-30T04:00:41;102595.86;;;-0.60;81.24
79376;BME280;68846;53.150;18.136;2024-01-30T04:03:08;102597.67;;;-0.59;81.29
79376;BME280;68846;53.150;18.136;2024-01-30T04:05:35;102597.14;;;-0.62;81.21
79376;BME280;68846;53.150;18.136;2024-01-30T04:08:02;102600.46;;;-0.65;81.28
79376;BME280;68846;53.150;18.136;2024-01-30T04:10:29;102601.26;;;-0.68;81.30
79376;BME280;68846;53.150;18.136;2024-01-30T04:12:56;102594.31;;;-0.70;81.31
79376;BME280;68846;53.150;18.136;2024-01-30T04:15:25;102595.61;;;-0.71;81.29
79376;BME280;68846;53.150;18.136;2024-01-30T04:17:53;102596.07;;;-0.72;81.25
79376;BME280;68846;53.150;18.136;2024-01-30T04:20:20;102594.11;;;-0.72;81.52
79376;BME280;68846;53.150;18.136;2024-01-30T04:22:47;102599.27;;;-0.73;81.20
79376;BME280;68846;53.150;18.136;2024-01-30T04:25:14;102592.47;;;-0.72;81.39
79376;BME280;68846;53.150;18.136;2024-01-30T04:27:41;102595.24;;;-0.72;81.42
79376;BME280;68846;53.150;18.136;2024-01-30T04:30:09;102595.53;;;-0.70;81.25
79376;BME280;68846;53.150;18.136;2024-01-30T04:32:36;102591.84;;;-0.69;81.60
79376;BME280;68846;53.150;18.136;2024-01-30T04:35:04;102592.40;;;-0.64;81.67
79376;BME280;68846;53.150;18.136;2024-01-30T04:37:31;102592.83;;;-0.58;81.22
79376;BME280;68846;53.150;18.136;2024-01-30T04:39:58;102591.91;;;-0.54;81.19
79376;BME280;68846;53.150;18.136;2024-01-30T04:42:25;102590.59;;;-0.53;81.16
79376;BME280;68846;53.150;18.136;2024-01-30T04:44:52;102592.02;;;-0.55;81.48
79376;BME280;68846;53.150;18.136;2024-01-30T04:47:20;102594.87;;;-0.58;81.54
79376;BME280;68846;53.150;18.136;2024-01-30T04:49:47;102593.63;;;-0.62;81.25
79376;BME280;68846;53.150;18.136;2024-01-30T04:52:15;102594.19;;;-0.66;81.32
79376;BME280;68846;53.150;18.136;2024-01-30T04:54:42;102596.02;;;-0.68;81.20
79376;BME280;68846;53.150;18.136;2024-01-30T04:57:09;102601.19;;;-0.71;81.32
79376;BME280;68846;53.150;18.136;2024-01-30T04:59:39;102604.52;;;-0.74;81.26
79376;BME280;68846;53.150;18.136;2024-01-30T05:02:06;102601.41;;;-0.76;81.70
79376;BME280;68846;53.150;18.136;2024-01-30T05:04:34;102605.02;;;-0.76;81.74
79376;BME280;68846;53.150;18.136;2024-01-30T05:07:01;102598.32;;;-0.76;81.56
79376;BME280;68846;53.150;18.136;2024-01-30T05:09:28;102601.11;;;-0.73;81.46
79376;BME280;68846;53.150;18.136;2024-01-30T05:11:55;102594.33;;;-0.72;81.56
79376;BME280;68846;53.150;18.136;2024-01-30T05:14:22;102594.93;;;-0.69;81.43
79376;BME280;68846;53.150;18.136;2024-01-30T05:16:49;102593.23;;;-0.67;81.13
79376;BME280;68846;53.150;18.136;2024-01-30T05:19:17;102588.94;;;-0.62;81.35
79376;BME280;68846;53.150;18.136;2024-01-30T05:21:45;102586.15;;;-0.59;81.35
79376;BME280;68846;53.150;18.136;2024-01-30T05:24:12;102585.65;;;-0.54;81.24
79376;BME280;68846;53.150;18.136;2024-01-30T05:26:39;102584.02;;;-0.53;81.28
79376;BME280;68846;53.150;18.136;2024-01-30T05:29:07;102587.49;;;-0.53;80.95
79376;BME280;68846;53.150;18.136;2024-01-30T05:31:34;102588.05;;;-0.54;81.08
79376;BME280;68846;53.150;18.136;2024-01-30T05:34:02;102585.45;;;-0.57;81.03
79376;BME280;68846;53.150;18.136;2024-01-30T05:36:29;102590.81;;;-0.59;81.48
79376;BME280;68846;53.150;18.136;2024-01-30T05:38:56;102591.10;;;-0.61;81.07
79376;BME280;68846;53.150;18.136;2024-01-30T05:41:24;102591.16;;;-0.65;81.44
79376;BME280;68846;53.150;18.136;2024-01-30T05:43:51;102591.23;;;-0.66;81.16
79376;BME280;68846;53.150;18.136;2024-01-30T05:46:18;102593.10;;;-0.64;81.38
79376;BME280;68846;53.150;18.136;2024-01-30T05:48:45;102599.92;;;-0.61;81.34
79376;BME280;68846;53.150;18.136;2024-01-30T05:51:13;102604.58;;;-0.58;81.58
79376;BME280;68846;53.150;18.136;2024-01-30T05:53:40;102603.42;;;-0.55;81.08
79376;BME280;68846;53.150;18.136;2024-01-30T05:56:08;102606.47;;;-0.53;81.25
79376;BME280;68846;53.150;18.136;2024-01-30T05:58:35;102606.84;;;-0.53;81.31
79376;BME280;68846;53.150;18.136;2024-01-30T06:01:07;102603.77;;;-0.51;81.35
79376;BME280;68846;53.150;18.136;2024-01-30T06:03:35;102603.52;;;-0.48;81.05
79376;BME280;68846;53.150;18.136;2024-01-30T06:06:02;102602.44;;;-0.46;81.36
79376;BME280;68846;53.150;18.136;2024-01-30T06:08:31;102602.48;;;-0.45;81.32
79376;BME280;68846;53.150;18.136;2024-01-30T06:10:59;102601.46;;;-0.47;81.15
79376;BME280;68846;53.150;18.136;2024-01-30T06:13:27;102601.66;;;-0.51;80.98
79376;BME280;68846;53.150;18.136;2024-01-30T06:15:54;102601.61;;;-0.56;80.92
79376;BME280;68846;53.150;18.136;2024-01-30T06:18:21;102606.89;;;-0.59;81.26
79376;BME280;68846;53.150;18.136;2024-01-30T06:20:48;102609.18;;;-0.60;81.32
79376;BME280;68846;53.150;18.136;2024-01-30T06:23:17;102611.70;;;-0.61;81.30
79376;BME280;68846;53.150;18.136;2024-01-30T06:25:45;102613.25;;;-0.61;81.17
79376;BME280;68846;53.150;18.136;2024-01-30T06:28:12;102612.32;;;-0.62;81.13
79376;BME280;68846;53.150;18.136;2024-01-30T06:30:40;102615.72;;;-0.61;81.26
79376;BME280;68846;53.150;18.136;2024-01-30T06:33:07;102612.82;;;-0.60;81.36
79376;BME280;68846;53.150;18.136;2024-01-30T06:35:34;102608.27;;;-0.59;81.31
79376;BME280;68846;53.150;18.136;2024-01-30T06:38:03;102611.14;;;-0.58;81.54
79376;BME280;68846;53.150;18.136;2024-01-30T06:40:30;102608.60;;;-0.55;81.50
79376;BME280;68846;53.150;18.136;2024-01-30T06:42:57;102606.06;;;-0.52;81.43
79376;BME280;68846;53.150;18.136;2024-01-30T06:45:24;102607.46;;;-0.50;81.16
79376;BME280;68846;53.150;18.136;2024-01-30T06:47:51;102606.70;;;-0.51;81.34
79376;BME280;68846;53.150;18.136;2024-01-30T06:50:18;102606.33;;;-0.53;81.26
79376;BME280;68846;53.150;18.136;2024-01-30T06:56:29;102612.18;;;-0.58;81.63
79376;BME280;68846;53.150;18.136;2024-01-30T06:58:57;102611.84;;;-0.58;81.21
79376;BME280;68846;53.150;18.136;2024-01-30T07:01:29;102613.29;;;-0.37;82.82
79376;BME280;68846;53.150;18.136;2024-01-30T07:03:58;102610.26;;;0.47;81.42
79376;BME280;68846;53.150;18.136;2024-01-30T07:06:25;102605.25;;;0.68;79.67
79376;BME280;68846;53.150;18.136;2024-01-30T07:08:52;102606.56;;;0.59;79.25
79376;BME280;68846;53.150;18.136;2024-01-30T07:11:20;102604.77;;;0.45;79.20
79376;BME280;68846;53.150;18.136;2024-01-30T07:13:50;102609.52;;;0.32;79.66
79376;BME280;68846;53.150;18.136;2024-01-30T07:16:18;102614.61;;;0.22;79.85
79376;BME280;68846;53.150;18.136;2024-01-30T07:18:45;102616.22;;;0.14;79.78
79376;BME280;68846;53.150;18.136;2024-01-30T07:21:12;102615.88;;;0.10;80.22
79376;BME280;68846;53.150;18.136;2024-01-30T07:23:39;102617.15;;;0.09;80.42
79376;BME280;68846;53.150;18.136;2024-01-30T07:26:06;102615.05;;;0.09;80.29
79376;BME280;68846;53.150;18.136;2024-01-30T07:28:35;102613.73;;;0.07;80.53
79376;BME280;68846;53.150;18.136;2024-01-30T07:31:02;102610.24;;;0.05;80.65
79376;BME280;68846;53.150;18.136;2024-01-30T07:33:30;102612.64;;;0.03;80.60
79376;BME280;68846;53.150;18.136;2024-01-30T07:35:57;102612.01;;;0.04;80.73
79376;BME280;68846;53.150;18.136;2024-01-30T07:38:24;102614.52;;;0.05;80.58
79376;BME280;68846;53.150;18.136;2024-01-30T07:40:51;102611.45;;;0.05;80.84
79376;BME280;68846;53.150;18.136;2024-01-30T07:43:18;102612.74;;;0.06;80.75
79376;BME280;68846;53.150;18.136;2024-01-30T07:45:46;102611.27;;;0.07;81.01
79376;BME280;68846;53.150;18.136;2024-01-30T07:48:13;102610.13;;;0.10;80.97
79376;BME280;68846;53.150;18.136;2024-01-30T07:50:41;102611.65;;;0.13;81.24
79376;BME280;68846;53.150;18.136;2024-01-30T07:53:08;102610.18;;;0.14;80.88
79376;BME280;68846;53.150;18.136;2024-01-30T07:55:35;102614.23;;;0.15;81.07
79376;BME280;68846;53.150;18.136;2024-01-30T07:58:02;102610.02;;;0.17;80.94
79376;BME280;68846;53.150;18.136;2024-01-30T08:00:31;102616.55;;;0.20;81.37
79376;BME280;68846;53.150;18.136;2024-01-30T08:02:58;102616.17;;;0.22;81.20
79376;BME280;68846;53.150;18.136;2024-01-30T08:05:26;102618.00;;;0.23;81.37
79376;BME280;68846;53.150;18.136;2024-01-30T08:07:53;102617.95;;;0.27;81.18
79376;BME280;68846;53.150;18.136;2024-01-30T08:10:20;102619.05;;;0.32;81.51
79376;BME280;68846;53.150;18.136;2024-01-30T08:12:47;102618.04;;;0.38;81.23
79376;BME280;68846;53.150;18.136;2024-01-30T08:15:14;102619.11;;;0.47;81.30
79376;BME280;68846;53.150;18.136;2024-01-30T08:17:41;102621.97;;;0.57;81.24
79376;BME280;68846;53.150;18.136;2024-01-30T08:20:09;102619.85;;;0.67;81.04
79376;BME280;68846;53.150;18.136;2024-01-30T08:22:40;102624.82;;;0.76;81.22
79376;BME280;68846;53.150;18.136;2024-01-30T08:25:08;102621.20;;;0.85;81.07
79376;BME280;68846;53.150;18.136;2024-01-30T08:27:36;102622.47;;;0.92;80.88
79376;BME280;68846;53.150;18.136;2024-01-30T08:30:08;102622.88;;;0.97;81.05
79376;BME280;68846;53.150;18.136;2024-01-30T08:32:36;102617.99;;;1.04;80.97
79376;BME280;68846;53.150;18.136;2024-01-30T08:35:05;102617.75;;;1.09;80.84
79376;BME280;68846;53.150;18.136;2024-01-30T08:37:33;102618.23;;;1.13;80.66
79376;BME280;68846;53.150;18.136;2024-01-30T08:40:00;102613.23;;;1.18;80.05
79376;BME280;68846;53.150;18.136;2024-01-30T08:42:28;102613.84;;;1.21;80.04
79376;BME280;68846;53.150;18.136;2024-01-30T08:44:55;102609.83;;;1.23;80.04
79376;BME280;68846;53.150;18.136;2024-01-30T08:47:23;102614.37;;;1.26;80.07
79376;BME280;68846;53.150;18.136;2024-01-30T08:49:50;102613.20;;;1.28;80.06
79376;BME280;68846;53.150;18.136;2024-01-30T08:52:17;102612.13;;;1.30;79.68
79376;BME280;68846;53.150;18.136;2024-01-30T08:58:26;102613.17;;;1.37;79.74
79376;BME280;68846;53.150;18.136;2024-01-30T09:04:35;102608.35;;;1.51;79.59
79376;BME280;68846;53.150;18.136;2024-01-30T09:07:03;102603.27;;;1.59;79.68
79376;BME280;68846;53.150;18.136;2024-01-30T09:09:32;102604.86;;;1.68;79.81
79376;BME280;68846;53.150;18.136;2024-01-30T09:11:59;102600.24;;;1.78;79.66
79376;BME280;68846;53.150;18.136;2024-01-30T09:14:31;102597.05;;;1.86;79.56
79376;BME280;68846;53.150;18.136;2024-01-30T09:16:58;102590.33;;;1.94;79.63
79376;BME280;68846;53.150;18.136;2024-01-30T09:19:25;102585.84;;;2.01;79.42
79376;BME280;68846;53.150;18.136;2024-01-30T09:21:52;102588.02;;;2.07;79.35
79376;BME280;68846;53.150;18.136;2024-01-30T09:24:19;102585.33;;;2.11;79.16
79376;BME280;68846;53.150;18.136;2024-01-30T09:26:46;102588.23;;;2.15;79.30
79376;BME280;68846;53.150;18.136;2024-01-30T09:29:13;102586.88;;;2.17;78.89
79376;BME280;68846;53.150;18.136;2024-01-30T09:31:44;102583.70;;;2.19;79.09
79376;BME280;68846;53.150;18.136;2024-01-30T09:34:13;102582.11;;;2.21;78.88
79376;BME280;68846;53.150;18.136;2024-01-30T09:36:41;102581.66;;;2.24;78.84
79376;BME280;68846;53.150;18.136;2024-01-30T09:39:09;102577.36;;;2.27;78.71
79376;BME280;68846;53.150;18.136;2024-01-30T09:41:49;102575.45;;;2.30;78.43
79376;BME280;68846;53.150;18.136;2024-01-30T09:44:20;102578.05;;;2.34;78.39
79376;BME280;68846;53.150;18.136;2024-01-30T09:46:48;102579.39;;;2.40;78.17
79376;BME280;68846;53.150;18.136;2024-01-30T09:49:16;102577.31;;;2.48;77.88
79376;BME280;68846;53.150;18.136;2024-01-30T09:51:45;102575.73;;;2.57;77.70
79376;BME280;68846;53.150;18.136;2024-01-30T09:54:14;102572.59;;;2.66;77.69
79376;BME280;68846;53.150;18.136;2024-01-30T09:56:42;102566.10;;;2.75;77.44
79376;BME280;68846;53.150;18.136;2024-01-30T09:59:09;102564.34;;;2.82;76.96
79376;BME280;68846;53.150;18.136;2024-01-30T10:01:36;102562.95;;;2.89;76.71
79376;BME280;68846;53.150;18.136;2024-01-30T10:04:04;102559.48;;;2.94;76.77
79376;BME280;68846;53.150;18.136;2024-01-30T10:06:31;102558.70;;;2.99;76.29
79376;BME280;68846;53.150;18.136;2024-01-30T10:08:59;102555.89;;;3.03;75.29
79376;BME280;68846;53.150;18.136;2024-01-30T10:11:27;102554.71;;;3.06;75.31
79376;BME280;68846;53.150;18.136;2024-01-30T10:13:54;102550.86;;;3.08;75.44
79376;BME280;68846;53.150;18.136;2024-01-30T10:16:21;102548.52;;;3.09;75.46
79376;BME280;68846;53.150;18.136;2024-01-30T10:18:48;102542.61;;;3.12;75.15
79376;BME280;68846;53.150;18.136;2024-01-30T10:21:15;102538.38;;;3.16;75.19
79376;BME280;68846;53.150;18.136;2024-01-30T10:23:44;102537.10;;;3.20;74.56
79376;BME280;68846;53.150;18.136;2024-01-30T10:26:11;102532.14;;;3.24;74.86
79376;BME280;68846;53.150;18.136;2024-01-30T10:28:38;102533.27;;;3.28;74.92
79376;BME280;68846;53.150;18.136;2024-01-30T10:31:06;102529.35;;;3.31;75.01
79376;BME280;68846;53.150;18.136;2024-01-30T10:33:33;102528.33;;;3.34;74.75
79376;BME280;68846;53.150;18.136;2024-01-30T10:36:02;102529.41;;;3.37;74.63
79376;BME280;68846;53.150;18.136;2024-01-30T10:38:31;102527.33;;;3.39;75.01
79376;BME280;68846;53.150;18.136;2024-01-30T10:41:01;102531.05;;;3.43;74.44
79376;BME280;68846;53.150;18.136;2024-01-30T10:43:35;102525.35;;;3.46;74.56
79376;BME280;68846;53.150;18.136;2024-01-30T10:50:09;102522.76;;;3.57;74.04
79376;BME280;68846;53.150;18.136;2024-01-30T10:52:39;102523.13;;;3.62;74.15
79376;BME280;68846;53.150;18.136;2024-01-30T10:55:07;102519.11;;;3.69;73.53
79376;BME280;68846;53.150;18.136;2024-01-30T10:57:35;102519.02;;;3.78;73.38
79376;BME280;68846;53.150;18.136;2024-01-30T11:00:08;102517.95;;;3.86;72.64
79376;BME280;68846;53.150;18.136;2024-01-30T11:02:40;102516.23;;;3.94;72.54
79376;BME280;68846;53.150;18.136;2024-01-30T11:05:08;102513.36;;;4.01;72.69
79376;BME280;68846;53.150;18.136;2024-01-30T11:07:35;102514.59;;;4.07;72.98
79376;BME280;68846;53.150;18.136;2024-01-30T11:10:03;102511.38;;;4.11;72.83
79376;BME280;68846;53.150;18.136;2024-01-30T11:12:33;102510.98;;;4.15;72.90
79376;BME280;68846;53.150;18.136;2024-01-30T11:15:10;102506.20;;;4.19;72.88
79376;BME280;68846;53.150;18.136;2024-01-30T11:22:53;102500.63;;;4.30;72.05
79376;BME280;68846;53.150;18.136;2024-01-30T11:25:22;102496.67;;;4.33;72.26
79376;BME280;68846;53.150;18.136;2024-01-30T11:27:55;102492.84;;;4.36;71.96
79376;BME280;68846;53.150;18.136;2024-01-30T11:33:13;102488.36;;;4.40;71.83
79376;BME280;68846;53.150;18.136;2024-01-30T11:35:44;102484.48;;;4.42;71.62
79376;BME280;68846;53.150;18.136;2024-01-30T11:38:14;102483.25;;;4.44;71.50
79376;BME280;68846;53.150;18.136;2024-01-30T11:40:41;102485.36;;;4.47;71.15
79376;BME280;68846;53.150;18.136;2024-01-30T11:43:09;102482.35;;;4.49;70.68
79376;BME280;68846;53.150;18.136;2024-01-30T11:45:37;102481.20;;;4.53;70.69
79376;BME280;68846;53.150;18.136;2024-01-30T11:48:05;102480.80;;;4.55;71.19
79376;BME280;68846;53.150;18.136;2024-01-30T11:50:33;102477.60;;;4.57;70.43
79376;BME280;68846;53.150;18.136;2024-01-30T11:53:02;102473.38;;;4.59;70.86
79376;BME280;68846;53.150;18.136;2024-01-30T11:55:29;102476.10;;;4.61;70.15
79376;BME280;68846;53.150;18.136;2024-01-30T11:57:58;102472.90;;;4.63;70.13
79376;BME280;68846;53.150;18.136;2024-01-30T12:00:25;102467.90;;;4.64;69.95
79376;BME280;68846;53.150;18.136;2024-01-30T12:02:54;102465.88;;;4.65;70.23
79376;BME280;68846;53.150;18.136;2024-01-30T12:05:28;102459.32;;;4.66;70.34
79376;BME280;68846;53.150;18.136;2024-01-30T12:07:56;102461.59;;;4.69;70.03
79376;BME280;68846;53.150;18.136;2024-01-30T12:10:25;102453.98;;;4.73;70.22
79376;BME280;68846;53.150;18.136;2024-01-30T12:12:53;102443.79;;;4.77;70.31
79376;BME280;68846;53.150;18.136;2024-01-30T12:15:22;102445.13;;;4.81;70.27
79376;BME280;68846;53.150;18.136;2024-01-30T12:17:50;102443.23;;;4.88;70.12
79376;BME280;68846;53.150;18.136;2024-01-30T12:20:19;102434.05;;;4.92;70.54
79376;BME280;68846;53.150;18.136;2024-01-30T12:22:48;102436.55;;;4.96;69.53
79376;BME280;68846;53.150;18.136;2024-01-30T12:25:17;102432.94;;;4.99;68.76
79376;BME280;68846;53.150;18.136;2024-01-30T12:27:47;102426.52;;;5.03;69.11
79376;BME280;68846;53.150;18.136;2024-01-30T12:30:20;102421.47;;;5.05;69.28
79376;BME280;68846;53.150;18.136;2024-01-30T12:32:50;102420.73;;;5.11;68.96
79376;BME280;68846;53.150;18.136;2024-01-30T12:35:19;102423.36;;;5.17;68.75
79376;BME280;68846;53.150;18.136;2024-01-30T12:37:48;102420.33;;;5.22;69.20
79376;BME280;68846;53.150;18.136;2024-01-30T12:40:17;102416.52;;;5.25;68.86
79376;BME280;68846;53.150;18.136;2024-01-30T12:42:46;102414.52;;;5.29;68.56
79376;BME280;68846;53.150;18.136;2024-01-30T12:45:15;102412.44;;;5.35;68.22
79376;BME280;68846;53.150;18.136;2024-01-30T12:47:43;102407.03;;;5.42;68.12
79376;BME280;68846;53.150;18.136;2024-01-30T12:50:11;102405.27;;;5.47;68.29
79376;BME280;68846;53.150;18.136;2024-01-30T12:52:39;102402.84;;;5.53;68.29
79376;BME280;68846;53.150;18.136;2024-01-30T12:55:06;102402.94;;;5.61;67.93
79376;BME280;68846;53.150;18.136;2024-01-30T12:57:33;102409.09;;;5.68;67.65
79376;BME280;68846;53.150;18.136;2024-01-30T13:00:00;102405.88;;;5.73;68.09
79376;BME280;68846;53.150;18.136;2024-01-30T13:02:27;102406.11;;;5.76;67.88
79376;BME280;68846;53.150;18.136;2024-01-30T13:05:03;102401.79;;;5.80;67.89
79376;BME280;68846;53.150;18.136;2024-01-30T13:07:30;102402.09;;;5.86;67.88
79376;BME280;68846;53.150;18.136;2024-01-30T13:09:57;102404.39;;;5.92;66.62
79376;BME280;68846;53.150;18.136;2024-01-30T13:12:30;102402.28;;;6.01;67.50